Flight Track Log - Related Links

Times and Time Zones

All times are in EST time to prevent confusion due to time zone crossing. See the SEJ1053 flight status page for this flight to view local times or setup timezone preferences in your user account.

Time Position Orientation Groundspeed Altitude Reporting Facility
EST Latitude Longitude Course Direction KTS MPH feet Rate Location/Type
Mon 10:39:00 AM 22.6095 77.4648 170° South  Level Estimated
Mon 10:40:00 AM 22.5342 77.4789 170° South  Level Estimated
Mon 10:41:00 AM 22.4589 77.4929 170° South  Level Estimated
Mon 10:42:00 AM 22.3836 77.5070 170° South  Level Estimated
Mon 10:43:00 AM 22.3082 77.5210 170° South  Level Estimated
Mon 10:44:00 AM 22.2329 77.5350 170° South  Level Estimated
Mon 10:45:00 AM 22.1575 77.5490 170° South  Level Estimated
Mon 10:46:00 AM 22.0822 77.5630 170° South  Level Estimated
Mon 10:47:00 AM 22.0069 77.5770 170° South  Level Estimated
Mon 10:48:00 AM 21.9315 77.5910 170° South  Level Estimated
Mon 10:49:00 AM 21.8562 77.6049 170° South  Level Estimated
Mon 10:50:00 AM 21.7808 77.6188 170° South  Level Estimated
Mon 10:51:00 AM 21.7055 77.6327 170° South  Level Estimated
Mon 10:52:00 AM 21.6301 77.6466 170° South  Level Estimated
Mon 10:53:00 AM 21.5548 77.6605 170° South  Level Estimated
Mon 10:54:00 AM 21.4795 77.6744 170° South  Level Estimated
Mon 10:55:00 AM 21.4041 77.6882 170° South  Level Estimated
Mon 10:56:00 AM 21.3288 77.7021 170° South  Level Estimated
Mon 10:57:00 AM 21.2534 77.7159 170° South  Level Estimated
Mon 10:58:00 AM 21.1780 77.7297 170° South  Level Estimated
Mon 10:59:00 AM 21.1027 77.7435 170° South  Level Estimated
Mon 11:00:00 AM 21.0273 77.7573 170° South  Level Estimated
Mon 11:01:00 AM 20.9520 77.7711 170° South  Level Estimated
Mon 11:02:00 AM 20.8766 77.7849 170° South  Level Estimated
Mon 11:03:00 AM 20.8013 77.7986 170° South  Level Estimated
Mon 11:04:00 AM 20.7259 77.8123 170° South  Level Estimated
Mon 11:05:00 AM 20.6506 77.8260 170° South  Level Estimated
Mon 11:06:00 AM 20.5752 77.8397 170° South  Level Estimated
Mon 11:07:00 AM 20.4998 77.8534 170° South  Level Estimated
Mon 11:08:00 AM 20.4245 77.8671 170° South  Level Estimated
Mon 11:09:00 AM 20.3491 77.8808 170° South  Level Estimated
Mon 11:10:00 AM 20.2737 77.8944 170° South  Level Estimated
Mon 11:11:00 AM 20.1984 77.9081 170° South  Level Estimated
Mon 11:12:00 AM 20.1230 77.9217 170° South  Level Estimated
Mon 11:13:00 AM 20.0476 77.9353 170° South  Level Estimated
Mon 11:14:00 AM 19.9723 77.9489 170° South  Level Estimated
Mon 11:15:00 AM 19.8969 77.9625 170° South  Level Estimated
Mon 11:16:00 AM 19.8215 77.9760 170° South  Level Estimated
Mon 11:17:00 AM 19.7461 77.9896 170° South  Level Estimated
Mon 11:18:00 AM 19.6708 78.0032 170° South  Level Estimated
Mon 11:19:00 AM 19.5954 78.0167 170° South  Level Estimated
Mon 11:20:00 AM 19.5200 78.0302 170° South  Level Estimated
Mon 11:21:00 AM 19.4447 78.0437 170° South  Level Estimated
Mon 11:22:00 AM 19.3693 78.0572 170° South  Level Estimated
Mon 11:23:00 AM 19.2939 78.0707 170° South  Level Estimated
Mon 11:24:00 AM 19.2185 78.0842 170° South  Level Estimated
Mon 11:25:00 AM 19.1431 78.0976 170° South  Level Estimated
Mon 11:26:00 AM 19.0678 78.1111 170° South  Level Estimated
Mon 11:27:00 AM 18.9924 78.1245 170° South  Level Estimated
Mon 11:28:00 AM 18.9170 78.1379 170° South  Level Estimated
Mon 11:29:00 AM 18.8416 78.1513 170° South  Level Estimated
Mon 11:30:00 AM 18.7662 78.1647 170° South  Level Estimated
Mon 11:31:00 AM 18.6908 78.1781 170° South  Level Estimated
Mon 11:32:00 AM 18.6154 78.1915 170° South  Level Estimated
Mon 11:33:00 AM 18.5401 78.2048 170° South  Level Estimated
Mon 11:34:00 AM 18.4647 78.2182 170° South  Level Estimated
Mon 11:35:00 AM 18.3893 78.2315 170° South  Level Estimated
Mon 11:36:00 AM 18.3139 78.2449 170° South  Level Estimated
Mon 11:37:00 AM 18.2385 78.2582 170° South  Level Estimated
Mon 11:38:00 AM 18.1631 78.2715 170° South  Level Estimated
Mon 11:39:00 AM 18.0877 78.2848 170° South  Level Estimated
Mon 11:40:00 AM 18.0123 78.2980 170° South  Level Estimated
Mon 11:41:00 AM 17.9369 78.3113 170° South  Level Estimated
Mon 11:42:00 AM 17.8615 78.3246 170° South  Level Estimated
Mon 11:43:00 AM 17.7861 78.3378 171° South  Level Estimated
Mon 11:44:00 AM 17.7107 78.3511 171° South  Level Estimated
Mon 11:45:00 AM 17.6353 78.3643 171° South  Level Estimated
Mon 11:46:00 AM 17.5599 78.3775 171° South  Level Estimated
Mon 11:47:00 AM 17.4845 78.3907 171° South  Level Estimated
Mon 11:48:00 AM 17.4091 78.4039 171° South  Level Estimated
Mon 11:49:00 AM 17.3337 78.4171 171° South  Level Estimated
Mon 11:50:00 AM 17.2583 78.4303 171° South  Level Estimated
Mon 11:51:00 AM 17.2540 78.4310 171° South  Level Estimated
Mon 11:52:00 AM 17.2540 78.4310 North  Level Estimated
Mon 11:53:00 AM 17.2540 78.4310 North  Level Estimated
Mon 11:54:00 AM 17.2540 78.4310 North  Level Estimated
Mon 11:55:00 AM 17.2540 78.4310 North  Level Estimated
Mon 11:56:00 AM 17.2540 78.4310 North  Level Estimated
Mon 11:57:00 AM 17.2540 78.4310 North  Level Estimated
Mon 11:58:00 AM 17.2540 78.4310 North  Level Estimated
Mon 11:59:00 AM 17.2540 78.4310 North  Level Estimated
Mon 12:00:00 PM 17.2540 78.4310 North  Level Estimated
Mon 12:01:00 PM 17.2540 78.4310 North  Level Estimated
Mon 12:02:00 PM 17.2540 78.4310 North  Level Estimated
Mon 12:03:00 PM 17.2540 78.4310 North  Level Estimated
Mon 12:04:00 PM 17.2540 78.4310 North  Level Estimated
Mon 12:05:00 PM 17.2540 78.4310 North  Level Estimated
Mon 12:06:00 PM 17.2540 78.4310 North  Level Estimated

Login

Don't have an account? Register now (free) for customized features, flight alerts, and more!